首页
METAR-TAF:

METAR-TAF

机场 :

Friedman Memorial Airport

Hailey, 爱达荷州, 美国

纬度: 43-30N, 经度: 114-18W, 海拔: 1620米

当前天气观测

该预报发布于17分钟前的22:50 UTC
风速10节,风向西北,有时为18节阵风
温度 8°C
湿度 23%
气压 1019 hPa
能見度: 16.1公里
散云层高于8000英尺

METAR: KSUN 172250Z 32010G18KT 10SM SCT080 08/M12 A3009

时间: 17:07 (23:07 UTC)

预报

该预报发布于5小时和47分钟前的17:20 UTC
预报有效从17日的 18点(UTC)到 18日的 24点(UTC)
风速15节,风向西北
能見度: 10公里
散云层高于6000英尺
从 17日的 2200点(UTC)
风速15节,风向西北
能見度: 10公里
多云层高于8000英尺
附近有阵雨
从 18日的 0300点(UTC)
风速10节,风向西北
能見度: 10公里
散云层高于4000英尺
阴天层高于8000英尺
附近有阵雨
从 18日的 0900点(UTC)
风速6节,风向西北
能見度: 10公里
散云层高于4000英尺
多云层高于6000英尺
从 18日的 1400点(UTC)
风速3节,风向多变
能見度: 10公里
散云层高于5000英尺
从 18日的 1700点(UTC)
风速8节,风向
能見度: 10公里
少量云层高于5000英尺

TAF: KSUN 171720Z 1718/1824 32015KT P6SM SCT060 FM172200 31015KT P6SM VCSH BKN080 FM180300 32010KT P6SM VCSH SCT040 OVC080 FM180900 32006KT P6SM SCT040 BKN060 FM181400 VRB03KT P6SM SCT050 FM181700 17008KT P6SM FEW050

超过4000个机场的气象观测和天气预报(METAR&TAF报告)。

可查询的气象台以黄色和红色小点在地图上表示。

将鼠标移到小点上方,可查看气象台名称。

然后点击查看天气观测和预报。

如需切换地图:点击带黑十字的绿色按钮放大地图;点击带横线的绿色按钮缩小地图;或者点击绿色箭头查看邻近地区的地图。


METAR-TAF: